createdAt,value
2019-04-26T02:35:08.345Z,1.90
2019-04-26T02:36:08.110Z,1.90
2019-04-26T06:29:36.949Z,6.80
2019-04-26T06:30:44.987Z,8.30
2019-04-26T06:31:34.276Z,6.70
2019-04-26T06:32:34.315Z,7.10
2019-04-26T06:33:34.258Z,7.90
2019-04-26T06:34:37.026Z,8.00
2019-04-26T06:37:59.773Z,7.30
2019-04-26T06:39:41.601Z,7.60
2019-04-26T06:40:42.078Z,8.00
2019-04-26T06:41:41.333Z,7.60
2019-04-26T06:42:41.314Z,7.70
2019-04-26T06:43:41.295Z,7.40
2019-04-26T06:44:41.261Z,8.10
2019-04-26T06:45:41.239Z,7.50
2019-04-26T06:46:41.214Z,7.40
2019-04-26T06:47:41.199Z,7.10
2019-04-26T06:48:41.171Z,7.10
2019-04-26T06:49:41.152Z,6.90
2019-04-26T06:50:41.123Z,6.90
2019-04-26T06:51:41.104Z,7.00
2019-04-26T06:52:41.078Z,6.80
2019-04-26T06:53:41.058Z,6.70
2019-04-26T06:54:41.031Z,6.70
2019-04-26T06:55:41.217Z,6.70
2019-04-26T06:56:40.988Z,6.50
2019-04-26T06:57:40.964Z,6.60
2019-04-26T06:58:40.942Z,6.20
2019-04-26T06:59:41.122Z,5.70
2019-04-26T07:00:41.110Z,6.80
2019-04-26T07:01:41.079Z,6.20
2019-04-26T07:02:40.852Z,4.40
2019-04-26T07:03:40.830Z,5.00
2019-04-26T07:04:40.858Z,4.70
2019-04-26T07:05:40.989Z,5.50
2019-04-26T07:06:40.763Z,6.20
2019-04-26T07:07:40.741Z,6.20
2019-04-26T07:08:40.719Z,6.00
2019-04-26T07:10:23.293Z,6.60
2019-04-26T07:11:23.069Z,6.70
2019-04-26T07:12:23.044Z,5.80
2019-04-26T07:13:23.025Z,5.30
2019-04-26T07:14:23.000Z,4.90
2019-04-26T07:15:28.759Z,4.40
2019-04-26T07:20:37.523Z,4.60
2019-04-26T07:28:41.448Z,3.30
2019-04-26T07:29:41.215Z,3.50
2019-04-26T07:31:23.789Z,3.40
2019-04-26T07:32:23.565Z,3.50
2019-04-26T07:35:48.312Z,3.10
2019-04-26T07:36:48.291Z,3.00
2019-04-26T07:37:48.478Z,3.20
2019-04-26T07:38:48.250Z,2.80
2019-04-26T07:39:48.230Z,2.70
2019-04-26T07:40:48.210Z,3.20
2019-04-26T07:41:48.393Z,3.10
2019-04-26T07:42:48.174Z,2.50
2019-04-26T07:43:48.150Z,2.60
2019-04-26T07:44:48.137Z,2.70
2019-04-26T07:45:52.147Z,2.70
2019-04-26T07:46:48.295Z,3.10
2019-04-26T07:47:48.068Z,3.00
2019-04-26T07:48:48.054Z,3.00
2019-04-26T07:49:48.030Z,3.00
2019-04-26T07:50:48.008Z,3.10
2019-04-26T07:52:30.587Z,3.10
2019-04-26T07:53:30.567Z,2.80
2019-04-26T07:54:30.345Z,2.90
2019-04-26T07:55:30.324Z,3.40
2019-04-26T07:56:30.303Z,2.80
2019-04-26T07:58:13.175Z,3.40
2019-04-26T08:02:45.043Z,2.90
2019-04-26T08:03:44.618Z,2.80
2019-04-26T08:04:44.607Z,2.80
2019-04-26T08:05:44.785Z,3.30
2019-04-26T08:06:44.557Z,2.90
2019-04-26T08:07:44.539Z,3.20
2019-04-26T08:08:44.524Z,3.40
2019-04-26T08:09:46.190Z,3.10
2019-04-26T08:10:44.489Z,3.50
2019-04-26T08:11:44.461Z,3.40
2019-04-26T08:12:44.643Z,3.00
2019-04-26T08:23:41.717Z,2.90
2019-04-26T08:24:37.937Z,2.90
2019-04-26T08:25:37.917Z,2.80
2019-04-26T08:26:37.900Z,3.10
2019-04-26T08:28:20.478Z,2.30
2019-04-26T08:29:20.264Z,2.80
2019-04-26T08:53:39.479Z,3.40
2019-04-26T08:54:39.256Z,3.70
2019-04-26T08:55:39.248Z,3.70
2019-04-26T08:56:39.222Z,3.50
2019-04-26T08:57:39.197Z,3.50
2019-04-26T08:58:39.177Z,3.70
2019-04-26T09:06:43.319Z,5.20
2019-04-26T09:07:43.308Z,5.60
2019-04-26T09:08:43.814Z,4.40
2019-04-26T09:09:43.261Z,4.10
2019-04-26T09:10:44.267Z,4.20
2019-04-26T09:11:43.227Z,4.40
2019-04-26T09:12:43.211Z,3.70
2019-04-26T10:03:53.292Z,3.70
2019-04-26T10:04:53.280Z,3.50
2019-04-26T10:05:55.841Z,2.60
2019-04-26T10:06:53.027Z,3.60
2019-04-26T10:07:53.007Z,3.30
2019-04-26T10:30:08.902Z,5.30
2019-04-26T10:31:05.836Z,5.30
2019-04-26T10:32:07.628Z,5.00
2019-04-26T10:35:56.601Z,4.40
2019-04-26T10:38:23.582Z,4.80
2019-04-26T10:39:19.304Z,4.60
2019-04-26T10:41:44.067Z,4.50
2019-04-26T10:42:43.843Z,5.10
2019-04-26T10:45:10.499Z,5.30
2019-04-26T10:46:08.584Z,5.70
2019-04-26T10:47:08.564Z,5.20
2019-04-26T10:48:09.702Z,5.80
2019-04-26T10:49:11.902Z,5.40
2019-04-26T10:50:08.695Z,5.30
2019-04-26T10:51:51.073Z,4.80
2019-04-26T10:52:54.585Z,4.70
2019-04-26T10:53:50.820Z,4.50
2019-04-26T10:54:50.796Z,4.90
2019-04-26T10:55:51.538Z,4.90
2019-04-26T10:56:50.750Z,4.80
2019-04-26T10:57:50.729Z,4.40
2019-04-26T10:58:50.703Z,4.60
2019-04-26T10:59:50.703Z,5.20
2019-04-26T11:00:52.616Z,5.70
2019-04-26T11:01:50.642Z,4.80
2019-04-26T11:02:50.615Z,4.70
2019-04-26T11:03:50.601Z,4.70
2019-04-26T11:04:50.572Z,4.50
2019-04-26T11:05:53.794Z,4.60
2019-04-26T11:06:50.529Z,4.80
2019-04-26T11:07:53.297Z,5.50
2019-04-26T11:08:50.486Z,5.40
2019-04-26T11:09:50.463Z,5.30
2019-04-26T11:10:50.489Z,5.60
2019-04-26T11:11:50.420Z,5.10
2019-04-26T11:12:50.403Z,4.50
2019-04-26T11:13:50.377Z,5.10
2019-04-26T11:14:53.201Z,5.60
2019-04-26T11:15:50.530Z,5.20
2019-04-26T11:16:50.306Z,5.50
2019-04-26T11:17:51.092Z,5.90
2019-04-26T11:18:50.261Z,5.90
2019-04-26T11:19:50.241Z,5.30
2019-04-26T11:20:50.215Z,5.30
2019-04-26T11:21:51.087Z,5.60
2019-04-26T11:22:50.378Z,5.20
2019-04-26T11:23:50.175Z,5.20
2019-04-26T11:24:53.711Z,5.50
2019-04-26T11:25:50.303Z,5.40
2019-04-26T11:26:50.083Z,5.80
2019-04-26T11:27:50.257Z,6.10
2019-04-26T11:28:51.314Z,6.10
2019-04-26T11:29:53.727Z,6.20
2019-04-26T11:30:52.067Z,6.70
2019-04-26T11:31:49.964Z,6.30
2019-04-26T11:32:49.939Z,5.80
2019-04-26T11:33:50.673Z,5.90
2019-04-26T11:34:50.094Z,6.20
2019-04-26T11:35:49.869Z,7.00
2019-04-26T11:36:49.872Z,6.40
2019-04-26T11:38:49.801Z,7.40
2019-04-26T11:39:49.803Z,6.90
2019-04-26T11:40:14.104Z,7.00
2019-04-26T11:40:58.434Z,7.40
2019-04-26T11:41:49.731Z,7.70
2019-04-26T11:42:49.714Z,7.80
2019-04-26T11:43:52.901Z,7.30
2019-04-26T11:44:49.663Z,6.60
2019-04-26T11:45:50.496Z,6.80
2019-04-26T11:46:49.612Z,7.20
2019-04-26T11:47:56.139Z,7.90
2019-04-26T11:48:58.524Z,7.60
2019-04-26T11:49:50.075Z,7.20
2019-04-26T11:50:52.175Z,6.60
2019-04-26T11:51:49.499Z,7.60
2019-04-26T11:52:49.477Z,7.40
2019-04-26T11:53:49.455Z,7.00
2019-04-26T11:54:51.257Z,7.80
2019-04-26T11:55:49.408Z,8.00
2019-04-26T11:56:50.475Z,8.10
2019-04-26T11:57:49.373Z,7.50
2019-04-26T11:58:52.445Z,8.00
2019-04-26T11:59:49.324Z,8.20
2019-04-26T12:00:49.297Z,7.40
2019-04-26T12:01:49.283Z,7.20
2019-04-26T12:02:50.734Z,7.40
2019-04-26T12:03:51.551Z,6.70
2019-04-26T12:04:49.717Z,6.80
2019-04-26T12:05:49.185Z,7.20
2019-04-26T12:06:49.161Z,6.90
2019-04-26T12:07:49.140Z,7.00
2019-04-26T12:08:49.117Z,7.20
2019-04-26T12:09:49.093Z,6.90
2019-04-26T12:10:49.072Z,6.30
2019-04-26T12:11:57.982Z,7.10
2019-04-26T12:12:51.839Z,6.90
2019-04-26T12:13:49.208Z,6.70
2019-04-26T12:14:48.982Z,7.10
2019-04-26T12:15:48.964Z,7.00
2019-04-26T12:16:51.505Z,7.10
2019-04-26T12:17:58.286Z,7.70
2019-04-26T12:18:48.897Z,7.40
2019-04-26T12:19:52.185Z,7.80
2019-04-26T12:20:48.852Z,7.60
2019-04-26T12:21:48.832Z,7.40
2019-04-26T12:22:48.809Z,7.40
2019-04-26T12:23:51.338Z,8.10
2019-04-26T12:24:48.778Z,7.90
2019-04-26T12:25:48.780Z,8.00
2019-04-26T12:26:51.981Z,9.10
2019-04-26T12:27:49.045Z,9.10
2019-04-26T12:28:48.682Z,9.10
2019-04-26T12:29:49.809Z,8.00
2019-04-26T12:30:48.637Z,7.90
2019-04-26T12:31:48.617Z,9.30
2019-04-26T12:32:50.052Z,8.10
2019-04-26T12:33:48.573Z,7.40
2019-04-26T12:34:48.553Z,6.90
2019-04-26T12:35:56.546Z,8.30
2019-04-26T12:36:48.512Z,8.00
2019-04-26T12:37:50.703Z,7.90
2019-04-26T12:38:48.464Z,8.20
2019-04-26T12:39:48.443Z,8.70
2019-04-26T12:40:48.423Z,9.00
2019-04-26T12:41:48.401Z,9.00
2019-04-26T12:42:48.483Z,8.70
2019-04-26T12:43:48.356Z,9.50
2019-04-26T12:44:48.331Z,9.40
2019-04-26T12:45:51.440Z,8.00
2019-04-26T12:46:50.647Z,8.00
2019-04-26T12:47:48.772Z,7.20
2019-04-26T12:48:49.919Z,6.90
2019-04-26T12:49:48.219Z,6.80
2019-04-26T12:50:48.196Z,6.80
2019-04-26T12:51:48.876Z,6.30
2019-04-26T12:52:51.366Z,6.60
2019-04-26T12:53:48.129Z,6.40
2019-04-26T12:54:48.308Z,6.50
2019-04-26T12:55:49.258Z,6.30
2019-04-26T12:56:48.061Z,6.20
2019-04-26T12:57:48.047Z,6.40
2019-04-26T12:58:50.018Z,6.40
2019-04-26T12:59:48.194Z,6.40
2019-04-26T13:00:54.362Z,6.10
2019-04-26T13:01:48.154Z,5.00
2019-04-26T13:02:50.145Z,5.40
2019-04-26T13:03:48.100Z,5.30
2019-04-26T13:04:48.077Z,5.60
2019-04-26T13:05:49.765Z,5.50
2019-04-26T13:06:48.031Z,5.30
2019-04-26T13:07:48.009Z,5.10
2019-04-26T13:09:30.378Z,5.10
2019-04-26T13:11:56.615Z,4.20
2019-04-26T13:12:55.118Z,4.00
2019-04-26T13:13:55.092Z,3.90
2019-04-26T13:14:55.068Z,4.00
2019-04-26T13:19:28.010Z,5.40
2019-04-26T13:20:28.767Z,5.40
2019-04-26T13:21:26.750Z,6.40
2019-04-26T13:23:51.713Z,8.90
2019-04-26T13:31:13.200Z,11.20
2019-04-26T13:33:37.953Z,10.60
2019-04-26T13:34:38.365Z,10.50
2019-04-26T13:35:41.278Z,9.90
2019-04-26T13:36:37.673Z,9.40
2019-04-26T13:37:37.650Z,9.80
2019-04-26T13:38:39.316Z,10.60
2019-04-26T13:39:37.598Z,9.30
2019-04-26T13:40:40.194Z,9.50
2019-04-26T13:41:38.717Z,9.00
2019-04-26T13:42:37.529Z,9.00
2019-04-26T13:43:37.499Z,9.60
2019-04-26T13:44:39.407Z,9.50
2019-04-26T13:45:37.444Z,9.50
2019-04-26T13:46:37.420Z,8.90
2019-04-26T13:47:37.397Z,8.60
2019-04-26T13:48:39.161Z,8.00
2019-04-26T13:49:37.345Z,9.30
2019-04-26T13:50:37.321Z,9.40
2019-04-26T13:51:37.296Z,9.90
2019-04-26T13:53:22.191Z,9.60
2019-04-26T15:16:59.495Z,6.50
2019-04-26T15:18:00.445Z,6.70
2019-04-26T15:18:59.243Z,7.00
2019-04-26T15:19:59.221Z,6.70
2019-04-26T15:20:59.195Z,6.70
2019-04-26T15:21:59.171Z,6.90
2019-04-26T15:22:59.152Z,6.60
2019-04-26T15:24:00.322Z,6.30
2019-04-26T15:24:59.101Z,6.50
2019-04-26T15:25:59.086Z,6.70
2019-04-26T15:27:01.833Z,6.40
2019-04-26T15:27:59.034Z,6.10
2019-04-26T15:28:59.008Z,6.70
2019-04-26T15:30:01.581Z,6.50
2019-04-26T15:30:58.963Z,6.60
2019-04-26T15:31:58.934Z,6.70
2019-04-26T15:32:58.920Z,6.80
2019-04-26T15:33:58.889Z,6.60
2019-04-26T15:35:00.036Z,6.50
2019-04-26T15:35:58.840Z,6.20
2019-04-26T15:52:34.098Z,3.70
2019-04-26T15:53:33.065Z,3.60
2019-04-26T15:54:32.402Z,4.00
2019-04-26T15:55:33.800Z,3.60
2019-04-26T17:09:17.611Z,2.20
2019-04-26T17:10:20.787Z,2.20
2019-04-26T17:11:17.544Z,2.50
2019-04-26T17:12:17.517Z,2.50
2019-04-26T17:13:17.286Z,2.50
2019-04-26T17:14:17.259Z,2.20
2019-04-26T17:15:17.461Z,2.30
2019-04-26T17:16:17.203Z,2.10
2019-04-26T17:17:17.178Z,2.40
2019-04-26T17:18:19.297Z,2.20
2019-04-26T17:19:19.760Z,2.30
2019-04-26T17:20:17.103Z,2.30
2019-04-26T17:21:17.733Z,2.50
2019-04-26T17:22:17.042Z,2.60
2019-04-26T17:23:17.021Z,2.70
2019-04-26T17:24:16.987Z,2.70
2019-04-26T17:25:23.735Z,2.60
2019-04-26T17:26:16.936Z,2.80
2019-04-26T17:27:16.907Z,3.10
2019-04-26T17:28:17.895Z,2.90
2019-04-26T17:29:16.853Z,3.10
2019-04-26T17:30:16.833Z,2.80
2019-04-26T17:31:16.801Z,2.90
2019-04-26T17:32:17.467Z,2.50
2019-04-26T17:33:16.747Z,2.40
2019-04-26T17:34:16.740Z,2.90
2019-04-26T17:35:16.696Z,3.30
2019-04-26T17:36:17.294Z,3.30
2019-04-26T17:37:17.384Z,3.40
2019-04-26T17:38:16.611Z,3.20
2019-04-26T17:39:18.264Z,3.50
2019-04-26T17:40:16.556Z,3.70
2019-04-26T17:41:16.532Z,3.90
2019-04-26T17:42:16.503Z,4.30
2019-04-26T17:43:16.477Z,4.50
2019-04-26T17:45:03.886Z,5.30
2019-04-26T17:47:23.790Z,6.50
2019-04-26T17:48:23.764Z,6.90
2019-04-26T17:49:27.156Z,6.40
2019-04-26T17:54:47.497Z,6.60
2019-04-26T18:10:28.157Z,10.90
2019-04-26T18:11:27.932Z,10.70
2019-04-26T18:12:27.897Z,10.90
2019-04-26T18:13:27.869Z,10.90
2019-04-26T18:14:30.328Z,12.30
2019-04-26T18:15:27.811Z,13.20
2019-04-26T18:16:29.697Z,13.20
2019-04-26T18:17:27.757Z,14.30
2019-04-26T18:18:27.730Z,14.70
2019-04-26T18:19:30.441Z,15.60
2019-04-26T18:20:27.671Z,17.30
2019-04-26T18:21:27.642Z,17.40
2019-04-26T18:22:28.343Z,17.90
2019-04-26T18:23:30.318Z,19.20
2019-04-26T18:24:31.787Z,18.90
2019-04-26T18:25:27.531Z,19.30
2019-04-26T18:26:27.508Z,17.00
2019-04-26T18:27:29.946Z,20.90
2019-04-26T18:28:27.452Z,21.80
2019-04-26T18:29:29.442Z,23.30
2019-04-26T18:30:27.395Z,23.90
2019-04-26T18:31:28.759Z,23.70
2019-04-26T18:32:27.338Z,22.30
2019-04-26T18:33:27.308Z,21.30
2019-04-26T18:34:30.505Z,22.40
2019-04-26T18:35:27.254Z,22.60
2019-04-26T18:36:27.643Z,22.50
2019-04-26T18:37:27.197Z,22.10
2019-04-26T18:38:27.171Z,23.90
2019-04-26T18:39:29.604Z,23.00
2019-04-26T18:40:27.116Z,24.10
2019-04-26T18:41:28.858Z,25.10
2019-04-26T18:42:27.127Z,25.60
2019-04-26T18:43:27.035Z,25.20
2019-04-26T18:44:36.238Z,24.20
2019-04-26T18:45:29.704Z,24.30
2019-04-26T18:46:26.948Z,25.20
2019-04-26T18:47:28.321Z,22.20
2019-04-26T18:48:27.096Z,23.70
2019-04-26T18:49:27.229Z,23.10
2019-04-26T18:50:28.478Z,21.40
2019-04-26T18:51:26.813Z,22.20
2019-04-26T18:52:26.784Z,21.80
2019-04-26T18:53:30.577Z,22.50
2019-04-26T18:54:26.777Z,22.20
2019-04-26T18:55:30.101Z,21.20
2019-04-26T18:56:26.674Z,20.50
2019-04-26T18:57:26.844Z,21.70
2019-04-26T18:58:30.307Z,20.60
2019-04-26T18:59:27.937Z,19.70
2019-04-26T19:00:29.001Z,18.10
2019-04-26T19:01:26.736Z,18.20
2019-04-26T19:02:26.505Z,19.10
2019-04-26T19:03:30.164Z,18.50
2019-04-26T19:04:26.652Z,16.30
2019-04-26T19:05:29.762Z,17.80
2019-04-26T19:06:31.574Z,17.00
2019-04-26T19:07:32.375Z,16.00
2019-04-26T19:08:27.241Z,17.30
2019-04-26T19:09:26.309Z,16.90
2019-04-26T19:10:29.485Z,17.00
2019-04-26T19:11:26.463Z,17.40
2019-04-26T19:12:27.113Z,17.80
2019-04-26T19:13:26.219Z,17.90
2019-04-26T19:14:26.370Z,17.50
2019-04-26T19:15:26.141Z,18.60
2019-04-26T19:16:26.316Z,19.70
2019-04-26T19:17:30.111Z,19.70
2019-04-26T19:18:26.060Z,21.10
2019-04-26T19:19:26.150Z,20.70
2019-04-26T19:20:26.203Z,21.70
2019-04-26T19:21:25.977Z,22.60
2019-04-26T19:22:25.945Z,23.60
2019-04-26T19:23:29.078Z,23.50
2019-04-26T19:24:25.893Z,23.30
2019-04-26T19:25:29.940Z,24.20
2019-04-26T19:26:33.064Z,26.90
2019-04-26T19:27:26.746Z,25.70
2019-04-26T19:28:25.778Z,27.10
2019-04-26T19:29:31.372Z,28.00
2019-04-26T19:30:25.741Z,27.90
2019-04-26T19:31:27.121Z,28.80
2019-04-26T19:32:25.668Z,29.60
2019-04-26T19:33:25.651Z,29.80
2019-04-26T19:34:26.020Z,30.40
2019-04-26T19:35:25.584Z,31.70
2019-04-26T19:36:27.839Z,30.70
2019-04-26T19:37:25.528Z,30.20
2019-04-26T19:38:25.499Z,31.00
2019-04-26T19:39:31.982Z,29.50
2019-04-26T19:40:27.373Z,33.90
2019-04-26T19:41:27.224Z,34.90
2019-04-26T19:42:27.051Z,34.10
2019-04-26T19:43:31.136Z,36.40
2019-04-26T19:44:25.355Z,35.80
2019-04-26T19:45:25.306Z,35.70
2019-04-26T19:46:25.445Z,28.50
2019-04-26T19:47:25.250Z,34.20
2019-04-26T19:48:26.044Z,36.70
2019-04-26T19:49:25.753Z,36.40
2019-04-26T19:50:25.167Z,37.70
2019-04-26T19:51:27.084Z,36.10
2019-04-26T19:52:25.111Z,35.50
2019-04-26T19:53:25.120Z,36.60
2019-04-26T19:54:32.547Z,35.90
2019-04-26T19:55:25.029Z,38.50
2019-04-26T19:56:27.636Z,39.30
2019-04-26T19:57:24.983Z,37.00
2019-04-26T19:58:24.945Z,38.00
2019-04-26T19:59:27.515Z,35.50
2019-04-26T20:00:24.889Z,40.90
2019-04-26T20:01:25.137Z,42.90
2019-04-26T20:02:26.878Z,42.00
2019-04-26T20:03:24.810Z,41.00
2019-04-26T20:04:30.771Z,43.70
2019-04-26T20:05:24.751Z,42.20
2019-04-26T20:06:26.819Z,45.50
2019-04-26T20:07:28.227Z,46.50
2019-04-26T20:08:24.684Z,44.30
2019-04-26T20:09:26.401Z,40.20
2019-04-26T20:10:24.621Z,42.90
2019-04-26T20:11:24.634Z,41.80
2019-04-26T20:12:25.302Z,43.80
2019-04-26T20:13:24.526Z,42.50
2019-04-26T20:14:39.322Z,45.00
2019-04-26T20:15:28.013Z,45.80
2019-04-26T20:16:26.005Z,44.70
2019-04-26T20:17:24.415Z,41.70
2019-04-26T20:18:24.392Z,43.00
2019-04-26T20:19:34.507Z,39.90
2019-04-26T20:20:27.798Z,43.90
2019-04-26T20:21:24.303Z,43.50
2019-04-26T20:22:28.796Z,42.70
2019-04-26T20:23:24.248Z,42.50
2019-04-26T20:24:24.222Z,39.20
2019-04-26T20:25:26.365Z,38.90
2019-04-26T20:26:24.185Z,40.20
2019-04-26T20:27:27.646Z,40.80
2019-04-26T20:28:24.110Z,42.30
2019-04-26T20:29:24.082Z,40.70
2019-04-26T20:30:27.577Z,38.60
2019-04-26T20:31:24.034Z,40.90
2019-04-26T20:32:24.082Z,41.80
2019-04-26T20:33:26.768Z,42.10
2019-04-26T20:34:23.947Z,42.40
2019-04-26T20:35:26.734Z,41.10
2019-04-26T20:36:23.888Z,41.10
2019-04-26T20:37:25.837Z,41.70
2019-04-26T20:38:23.831Z,42.70
2019-04-26T20:39:24.112Z,42.40
2019-04-26T20:40:25.595Z,41.90
2019-04-26T20:41:23.767Z,42.70
2019-04-26T20:42:23.725Z,42.10
2019-04-26T20:43:26.526Z,39.50
2019-04-26T20:44:28.301Z,42.90
2019-04-26T20:45:23.840Z,44.00
2019-04-26T20:46:25.134Z,46.60
2019-04-26T20:47:23.580Z,48.10
2019-04-26T20:48:25.600Z,45.30
2019-04-26T20:49:23.524Z,44.80
2019-04-26T20:50:23.496Z,45.70
2019-04-26T20:51:24.223Z,48.30
2019-04-26T20:52:24.982Z,49.10
2019-04-26T20:53:23.414Z,48.70
2019-04-26T20:54:23.385Z,50.60
2019-04-26T20:55:30.328Z,49.60
2019-04-26T20:56:23.330Z,48.70
2019-04-26T20:57:26.609Z,50.20
2019-04-26T20:58:23.275Z,51.10
2019-04-26T20:59:23.720Z,46.40
2019-04-26T21:00:23.219Z,50.30
2019-04-26T21:01:23.190Z,49.40
2019-04-26T21:02:24.769Z,46.60
2019-04-26T21:03:27.550Z,42.90
2019-04-26T21:04:35.007Z,47.40
2019-04-26T21:05:23.079Z,48.50
2019-04-26T21:06:23.050Z,49.80
2019-04-26T21:07:23.023Z,52.50
2019-04-26T21:08:25.734Z,53.70
2019-04-26T21:09:22.972Z,53.30
2019-04-26T21:10:25.675Z,55.10
2019-04-26T21:11:22.946Z,51.20
2019-04-26T21:12:22.886Z,54.20
2019-04-26T21:13:23.667Z,51.10
2019-04-26T21:14:22.829Z,52.40
2019-04-26T21:15:24.209Z,56.40
2019-04-26T21:16:22.770Z,54.80
2019-04-26T21:17:24.341Z,53.00
2019-04-26T21:18:23.006Z,55.80
2019-04-26T21:19:22.686Z,55.90
2019-04-26T21:20:22.660Z,58.00
2019-04-26T21:21:22.631Z,46.00
2019-04-26T21:22:28.430Z,55.30
2019-04-26T21:23:22.576Z,56.60
2019-04-26T21:24:23.625Z,56.00
2019-04-26T21:25:22.518Z,51.90
2019-04-26T21:26:22.491Z,58.50
2019-04-26T21:27:25.963Z,60.30
2019-04-26T21:28:22.435Z,60.90
2019-04-26T21:29:24.372Z,59.70
2019-04-26T21:30:22.381Z,55.50
2019-04-26T21:31:22.349Z,53.30
2019-04-26T21:32:24.554Z,56.20
2019-04-26T21:33:23.869Z,63.00
2019-04-26T21:34:22.267Z,61.30
2019-04-26T21:35:26.641Z,62.20
2019-04-26T21:36:22.882Z,63.70
2019-04-26T21:37:22.453Z,60.40
2019-04-26T21:38:25.564Z,62.00
2019-04-26T21:39:22.125Z,66.40
2019-04-26T21:40:25.081Z,67.30
2019-04-26T21:41:23.578Z,62.20
2019-04-26T21:42:24.244Z,65.70
2019-04-26T21:43:23.167Z,70.10
2019-04-26T21:44:21.986Z,67.00
2019-04-26T21:45:28.418Z,64.40
2019-04-26T21:46:22.976Z,61.60
2019-04-26T21:47:23.177Z,62.60
2019-04-26T21:48:23.508Z,64.00
2019-04-26T21:49:22.216Z,64.80
2019-04-26T21:50:21.821Z,62.30
2019-04-26T21:51:22.996Z,60.90
2019-04-26T21:52:27.566Z,59.90
2019-04-26T21:53:21.746Z,60.10
2019-04-26T21:54:21.707Z,60.10
2019-04-26T21:55:26.585Z,63.30
2019-04-26T21:56:23.324Z,63.20
2019-04-26T21:57:25.050Z,61.10
2019-04-26T21:58:21.599Z,62.50
2019-04-26T21:59:21.567Z,64.20
2019-04-26T22:00:22.724Z,62.90
2019-04-26T22:01:23.424Z,62.60
2019-04-26T22:02:21.481Z,59.60
2019-04-26T22:03:21.453Z,60.00
2019-04-26T22:04:22.761Z,61.20
2019-04-26T22:05:21.395Z,61.00
2019-04-26T22:06:26.909Z,61.00
2019-04-26T22:07:21.391Z,65.20
2019-04-26T22:08:24.559Z,64.40
2019-04-26T22:09:21.284Z,66.70
2019-04-26T22:10:21.262Z,65.90
2019-04-26T22:11:23.159Z,64.90
2019-04-26T22:12:21.201Z,63.10
2019-04-26T22:13:22.993Z,62.40
2019-04-26T22:14:21.628Z,59.50
2019-04-26T22:15:21.150Z,59.70
2019-04-26T22:16:31.948Z,62.20
2019-04-26T22:17:22.629Z,67.10
2019-04-26T22:19:03.871Z,64.00
2019-04-26T22:20:06.644Z,62.90
2019-04-26T22:21:03.565Z,64.80
2019-04-26T22:22:04.240Z,64.40
2019-04-26T22:23:03.311Z,67.50
2019-04-26T22:24:05.937Z,64.10
2019-04-26T22:25:03.887Z,68.40
2019-04-26T22:26:06.057Z,66.70
2019-04-26T22:27:03.841Z,66.80
2019-04-26T22:28:03.454Z,65.60
2019-04-26T22:29:03.818Z,63.50
2019-04-26T22:30:03.387Z,64.80
2019-04-26T22:31:06.832Z,62.40
2019-04-26T22:32:03.641Z,65.00
2019-04-26T22:33:03.197Z,65.40
2019-04-26T22:34:07.326Z,62.70
2019-04-26T22:35:03.272Z,60.00
2019-04-26T22:36:03.970Z,60.20
2019-04-26T22:37:11.079Z,59.10
2019-04-26T22:38:04.045Z,57.30
2019-04-26T22:39:04.624Z,58.20
2019-04-26T22:40:03.698Z,61.60
2019-04-26T22:41:03.197Z,60.20
2019-04-26T22:42:03.822Z,59.60
2019-04-26T22:43:02.867Z,60.90
2019-04-26T22:44:03.850Z,60.50
2019-04-26T22:45:09.114Z,60.40
2019-04-26T22:46:02.947Z,62.40
2019-04-26T22:47:03.494Z,63.30
2019-04-26T22:48:03.421Z,67.70
2019-04-26T22:49:05.771Z,66.30
2019-04-26T22:50:02.553Z,66.40
2019-04-26T22:51:04.487Z,70.40
2019-04-26T22:52:06.070Z,68.10
2019-04-26T22:53:04.043Z,66.40
2019-04-26T22:54:06.098Z,71.30
2019-04-26T22:55:04.081Z,70.50
2019-04-26T22:56:03.372Z,69.00
2019-04-26T22:57:03.943Z,68.50
2019-04-26T22:58:03.244Z,70.30
2019-04-26T22:59:05.189Z,70.20
2019-04-26T23:00:02.266Z,69.30
2019-04-26T23:01:03.459Z,72.00
2019-04-26T23:02:03.531Z,70.10
2019-04-26T23:03:05.466Z,70.90
2019-04-26T23:04:03.448Z,70.80
2019-04-26T23:05:05.545Z,67.70
2019-04-26T23:06:03.590Z,71.50
2019-04-26T23:07:03.433Z,72.70
2019-04-26T23:08:03.361Z,72.20
2019-04-26T23:09:02.014Z,73.10
2019-04-26T23:10:04.077Z,73.70
2019-04-26T23:11:02.479Z,69.70
2019-04-26T23:12:03.806Z,67.90
2019-04-26T23:13:04.592Z,61.40
2019-04-26T23:14:03.375Z,66.70
2019-04-26T23:15:03.293Z,62.00
2019-04-26T23:16:08.212Z,68.40
2019-04-26T23:17:06.387Z,73.60
2019-04-26T23:18:03.731Z,70.40
2019-04-26T23:19:01.733Z,72.80
2019-04-26T23:20:03.004Z,74.90
2019-04-26T23:21:03.431Z,74.40
2019-04-26T23:22:01.651Z,65.20
2019-04-26T23:23:06.828Z,78.10
2019-04-26T23:24:03.305Z,77.50
2019-04-26T23:25:03.160Z,69.40
2019-04-26T23:26:02.348Z,70.50
2019-04-26T23:27:01.512Z,72.10
2019-04-26T23:28:01.482Z,71.90
2019-04-26T23:29:01.455Z,72.50
2019-04-26T23:30:01.426Z,75.80
2019-04-26T23:31:07.719Z,76.30
2019-04-26T23:32:03.490Z,72.20
2019-04-26T23:33:01.342Z,75.20
2019-04-26T23:34:02.942Z,73.80
2019-04-26T23:35:02.915Z,78.80
2019-04-26T23:36:01.263Z,76.90
2019-04-26T23:37:03.097Z,75.20
2019-04-26T23:38:03.517Z,72.40
2019-04-26T23:39:02.983Z,74.80
2019-04-26T23:40:01.148Z,73.10
2019-04-26T23:41:06.839Z,66.80
2019-04-26T23:42:01.139Z,66.00
2019-04-26T23:43:02.728Z,64.70
2019-04-26T23:44:06.291Z,65.80
2019-04-26T23:45:01.007Z,63.20
2019-04-26T23:46:00.977Z,61.60
2019-04-26T23:47:02.157Z,63.40
2019-04-26T23:48:00.971Z,62.50
2019-04-26T23:49:00.894Z,64.10
2019-04-26T23:50:00.866Z,64.10
2019-04-26T23:51:04.926Z,61.80
2019-04-26T23:52:00.813Z,62.20
2019-04-26T23:53:00.775Z,62.70
2019-04-26T23:54:00.748Z,58.80
2019-04-26T23:55:07.251Z,62.00
2019-04-26T23:56:00.693Z,59.90
2019-04-26T23:57:00.664Z,61.80
2019-04-26T23:58:00.635Z,60.50
2019-04-26T23:59:00.608Z,58.50
